createdAt,value
2018-06-10T00:00:57.830Z,47.12
2018-06-10T00:01:57.999Z,43.95
2018-06-10T00:02:58.171Z,33.94
2018-06-10T00:03:58.347Z,34.42
2018-06-10T00:04:58.527Z,35.64
2018-06-10T00:05:58.711Z,34.67
2018-06-10T00:06:58.880Z,33.20
2018-06-10T00:07:59.092Z,55.42
2018-06-10T00:08:59.281Z,35.89
2018-06-10T00:09:59.481Z,35.40
2018-06-10T00:10:59.647Z,38.33
2018-06-10T00:11:59.834Z,38.33
2018-06-10T00:13:00.052Z,35.40
2018-06-10T00:14:00.191Z,46.14
2018-06-10T00:15:00.394Z,46.14
2018-06-10T00:16:00.537Z,39.31
2018-06-10T00:17:00.745Z,36.13
2018-06-10T00:18:00.912Z,35.40
2018-06-10T00:19:01.132Z,34.18
2018-06-10T00:20:01.304Z,33.45
2018-06-10T00:21:01.464Z,34.42
2018-06-10T00:22:01.655Z,35.64
2018-06-10T00:23:01.835Z,35.40
2018-06-10T00:24:02.042Z,32.96
2018-06-10T00:25:02.216Z,41.75
2018-06-10T00:26:02.434Z,45.17
2018-06-10T00:27:02.574Z,35.89
2018-06-10T00:28:02.795Z,35.16
2018-06-10T00:29:02.939Z,36.38
2018-06-10T00:30:03.154Z,34.18
2018-06-10T00:31:03.347Z,33.94
2018-06-10T00:32:03.519Z,39.06
2018-06-10T00:33:03.688Z,43.21
2018-06-10T00:34:03.882Z,38.09
2018-06-10T00:35:04.080Z,37.35
2018-06-10T00:36:04.310Z,34.67
2018-06-10T00:37:04.427Z,33.20
2018-06-10T00:38:04.610Z,33.94
2018-06-10T00:39:04.770Z,38.33
2018-06-10T00:40:04.951Z,38.82
2018-06-10T00:41:05.133Z,46.88
2018-06-10T00:42:05.319Z,35.64
2018-06-10T00:43:05.504Z,50.78
2018-06-10T00:44:05.718Z,36.38
2018-06-10T00:45:05.904Z,33.20
2018-06-10T00:46:06.089Z,32.96
2018-06-10T00:47:06.281Z,34.91
2018-06-10T00:48:06.514Z,38.57
2018-06-10T00:49:06.696Z,33.69
2018-06-10T00:50:06.809Z,33.94
2018-06-10T00:51:07.007Z,36.62
2018-06-10T00:52:07.171Z,34.42
2018-06-10T00:53:07.353Z,37.60
2018-06-10T00:54:07.572Z,33.69
2018-06-10T00:55:07.717Z,32.96
2018-06-10T00:56:07.900Z,32.96
2018-06-10T00:57:08.075Z,32.96
2018-06-10T00:58:08.259Z,34.91
2018-06-10T00:59:08.437Z,48.10
2018-06-10T01:00:08.680Z,42.48
2018-06-10T01:01:08.822Z,42.24
2018-06-10T01:02:09.003Z,33.94
2018-06-10T01:03:09.166Z,35.89
2018-06-10T01:04:09.311Z,35.16
2018-06-10T01:05:09.519Z,36.13
2018-06-10T01:06:09.702Z,36.38
2018-06-10T01:07:09.919Z,34.67
2018-06-10T01:08:10.093Z,41.26
2018-06-10T01:09:10.244Z,44.43
2018-06-10T01:10:10.429Z,40.28
2018-06-10T01:11:10.593Z,33.94
2018-06-10T01:12:10.814Z,33.20
2018-06-10T01:13:10.992Z,37.84
2018-06-10T01:14:11.174Z,34.18
2018-06-10T01:15:11.314Z,33.69
2018-06-10T01:16:11.569Z,44.92
2018-06-10T01:17:11.687Z,35.64
2018-06-10T01:18:11.851Z,35.40
2018-06-10T01:19:12.033Z,35.64
2018-06-10T01:20:12.225Z,37.60
2018-06-10T01:21:12.441Z,36.62
2018-06-10T01:22:12.616Z,36.13
2018-06-10T01:23:12.791Z,39.31
2018-06-10T01:24:12.948Z,34.42
2018-06-10T01:25:13.143Z,34.67
2018-06-10T01:26:13.382Z,34.67
2018-06-10T01:27:13.484Z,36.87
2018-06-10T01:28:13.689Z,36.87
2018-06-10T01:29:13.842Z,36.62
2018-06-10T01:30:14.013Z,37.35
2018-06-10T01:31:14.209Z,38.82
2018-06-10T01:32:14.438Z,37.11
2018-06-10T01:33:14.576Z,55.42
2018-06-10T01:34:14.761Z,36.87
2018-06-10T01:35:14.944Z,48.58
2018-06-10T01:36:15.116Z,38.33
2018-06-10T01:37:15.288Z,39.31
2018-06-10T01:38:15.480Z,38.33
2018-06-10T01:39:15.705Z,35.89
2018-06-10T01:40:15.853Z,38.09
2018-06-10T01:41:16.031Z,38.57
2018-06-10T01:42:16.223Z,37.84
2018-06-10T01:43:16.436Z,38.33
2018-06-10T01:44:16.569Z,43.21
2018-06-10T01:45:16.741Z,40.53
2018-06-10T01:46:16.938Z,42.48
2018-06-10T01:47:17.085Z,41.75
2018-06-10T01:48:17.266Z,40.04
2018-06-10T01:49:17.475Z,40.28
2018-06-10T01:50:17.625Z,44.92
2018-06-10T01:51:17.833Z,41.50
2018-06-10T01:52:17.996Z,61.28
2018-06-10T01:53:18.191Z,40.77
2018-06-10T01:54:18.416Z,38.09
2018-06-10T01:55:18.554Z,38.09
2018-06-10T01:56:18.753Z,39.31
2018-06-10T01:57:18.950Z,41.75
2018-06-10T01:58:19.135Z,39.55
2018-06-10T01:59:19.340Z,38.33
2018-06-10T02:00:19.480Z,47.85
2018-06-10T02:01:19.691Z,47.12
2018-06-10T02:02:19.877Z,45.90
2018-06-10T02:03:20.033Z,49.32
2018-06-10T02:04:20.206Z,51.76
2018-06-10T02:05:20.378Z,49.07
2018-06-10T02:06:20.539Z,49.32
2018-06-10T02:07:20.781Z,50.78
2018-06-10T02:08:20.919Z,52.98
2018-06-10T02:09:21.113Z,51.76
2018-06-10T02:10:21.275Z,48.83
2018-06-10T02:11:21.474Z,48.34
2018-06-10T02:12:21.635Z,42.48
2018-06-10T02:13:21.852Z,46.63
2018-06-10T02:14:22.024Z,48.58
2018-06-10T02:15:22.234Z,49.80
2018-06-10T02:16:22.381Z,51.27
2018-06-10T02:17:22.580Z,50.05
2018-06-10T02:18:22.753Z,49.32
2018-06-10T02:19:22.973Z,51.51
2018-06-10T02:20:23.120Z,51.03
2018-06-10T02:21:23.348Z,49.56
2018-06-10T02:22:23.497Z,49.32
2018-06-10T02:23:23.707Z,50.54
2018-06-10T02:24:23.845Z,46.88
2018-06-10T02:25:24.029Z,48.34
2018-06-10T02:26:24.230Z,47.12
2018-06-10T02:27:24.412Z,47.12
2018-06-10T02:28:24.575Z,47.85
2018-06-10T02:29:24.768Z,48.34
2018-06-10T02:30:24.940Z,49.32
2018-06-10T02:31:25.120Z,49.80
2018-06-10T02:32:25.329Z,56.88
2018-06-10T02:33:25.520Z,60.06
2018-06-10T02:34:25.748Z,60.30
2018-06-10T02:35:25.909Z,61.28
2018-06-10T02:36:26.105Z,60.55
2018-06-10T02:37:26.279Z,59.57
2018-06-10T02:38:26.428Z,59.81
2018-06-10T02:39:26.599Z,52.73
2018-06-10T02:40:26.809Z,50.78
2018-06-10T02:41:26.971Z,50.29
2018-06-10T02:42:27.145Z,58.59
2018-06-10T02:43:27.358Z,74.22
2018-06-10T02:44:27.510Z,73.00
2018-06-10T02:45:27.717Z,74.46
2018-06-10T02:46:27.886Z,58.59
2018-06-10T02:47:28.071Z,59.81
2018-06-10T02:48:28.265Z,58.84
2018-06-10T02:49:28.407Z,56.15
2018-06-10T02:50:28.615Z,58.84
2018-06-10T02:51:28.768Z,57.86
2018-06-10T02:52:29.007Z,59.33
2018-06-10T02:53:29.146Z,58.84
2018-06-10T02:54:29.337Z,58.84
2018-06-10T02:55:29.510Z,60.55
2018-06-10T02:56:29.717Z,57.13
2018-06-10T02:57:29.846Z,59.33
2018-06-10T02:58:30.038Z,61.28
2018-06-10T02:59:30.211Z,61.77
2018-06-10T03:00:30.422Z,61.28
2018-06-10T03:01:30.561Z,59.57
2018-06-10T03:02:30.743Z,62.01
2018-06-10T03:03:30.929Z,61.52
2018-06-10T03:04:31.131Z,63.48
2018-06-10T03:05:31.300Z,53.71
2018-06-10T03:06:31.501Z,58.35
2018-06-10T03:07:31.657Z,48.83
2018-06-10T03:08:31.835Z,49.56
2018-06-10T03:09:32.008Z,47.61
2018-06-10T03:10:32.211Z,62.50
2018-06-10T03:11:32.383Z,53.71
2018-06-10T03:12:32.574Z,71.04
2018-06-10T03:13:32.750Z,47.36
2018-06-10T03:14:32.939Z,56.88
2018-06-10T03:15:33.125Z,47.85
2018-06-10T03:16:33.325Z,45.90
2018-06-10T03:17:33.518Z,51.27
2018-06-10T03:18:33.653Z,46.14
2018-06-10T03:19:33.873Z,45.17
2018-06-10T03:20:34.031Z,51.51
2018-06-10T03:21:34.257Z,60.79
2018-06-10T03:22:34.408Z,54.44
2018-06-10T03:23:34.620Z,60.79
2018-06-10T03:24:34.802Z,61.52
2018-06-10T03:25:34.963Z,63.48
2018-06-10T03:26:35.152Z,49.32
2018-06-10T03:27:35.303Z,52.49
2018-06-10T03:28:35.520Z,53.47
2018-06-10T03:29:35.723Z,51.27
2018-06-10T03:30:35.886Z,56.64
2018-06-10T03:31:36.055Z,52.49
2018-06-10T03:32:36.316Z,54.69
2018-06-10T03:33:36.433Z,58.11
2018-06-10T03:34:36.636Z,53.47
2018-06-10T03:35:36.787Z,59.81
2018-06-10T03:36:36.958Z,53.71
2018-06-10T03:37:37.186Z,55.66
2018-06-10T03:38:37.361Z,53.47
2018-06-10T03:39:37.501Z,59.33
2018-06-10T03:40:37.682Z,48.58
2018-06-10T03:41:37.864Z,51.03
2018-06-10T03:42:38.058Z,50.78
2018-06-10T03:43:38.270Z,49.56
2018-06-10T03:44:38.411Z,53.47
2018-06-10T03:45:38.597Z,59.81
2018-06-10T03:46:38.782Z,59.33
2018-06-10T03:47:38.988Z,48.34
2018-06-10T03:48:39.160Z,50.78
2018-06-10T03:49:39.346Z,50.54
2018-06-10T03:50:39.554Z,47.85
2018-06-10T03:51:39.731Z,60.06
2018-06-10T03:52:39.904Z,53.96
2018-06-10T03:53:40.092Z,49.80
2018-06-10T03:54:40.273Z,51.03
2018-06-10T03:55:40.483Z,54.69
2018-06-10T03:56:40.670Z,49.56
2018-06-10T03:57:40.847Z,49.32
2018-06-10T03:58:41.031Z,55.66
2018-06-10T03:59:41.207Z,55.18
2018-06-10T04:00:41.387Z,63.23
2018-06-10T04:01:41.576Z,55.66
2018-06-10T04:02:41.769Z,61.28
2018-06-10T04:03:41.936Z,55.91
2018-06-10T04:04:42.148Z,57.37
2018-06-10T04:05:42.323Z,56.40
2018-06-10T04:06:42.496Z,56.88
2018-06-10T04:07:42.680Z,56.64
2018-06-10T04:08:42.857Z,53.22
2018-06-10T04:09:43.042Z,63.48
2018-06-10T04:10:43.219Z,63.96
2018-06-10T04:11:43.451Z,56.88
2018-06-10T04:12:43.603Z,57.62
2018-06-10T04:13:43.782Z,56.88
2018-06-10T04:14:43.961Z,60.30
2018-06-10T04:15:44.147Z,61.28
2018-06-10T04:16:44.359Z,59.81
2018-06-10T04:17:44.507Z,45.90
2018-06-10T04:18:44.697Z,48.10
2018-06-10T04:19:44.884Z,49.32
2018-06-10T04:20:45.069Z,49.32
2018-06-10T04:21:45.254Z,50.29
2018-06-10T04:22:45.448Z,47.85
2018-06-10T04:23:45.625Z,50.05
2018-06-10T04:24:45.830Z,50.78
2018-06-10T04:25:45.992Z,46.63
2018-06-10T04:26:46.190Z,54.20
2018-06-10T04:27:46.368Z,48.10
2018-06-10T04:28:46.550Z,60.55
2018-06-10T04:29:46.747Z,59.81
2018-06-10T04:30:46.953Z,59.81
2018-06-10T04:31:47.133Z,60.06
2018-06-10T04:32:47.301Z,59.81
2018-06-10T04:33:47.480Z,55.42
2018-06-10T04:34:47.683Z,58.84
2018-06-10T04:35:47.840Z,56.88
2018-06-10T04:36:48.023Z,56.88
2018-06-10T04:37:48.225Z,55.66
2018-06-10T04:38:48.465Z,57.37
2018-06-10T04:39:48.604Z,57.86
2018-06-10T04:40:48.764Z,60.30
2018-06-10T04:41:48.944Z,60.06
2018-06-10T04:42:49.161Z,58.59
2018-06-10T04:43:49.297Z,57.13
2018-06-10T04:44:49.492Z,55.42
2018-06-10T04:45:49.677Z,45.17
2018-06-10T04:46:49.863Z,45.65
2018-06-10T04:47:50.054Z,53.22
2018-06-10T04:48:50.254Z,51.76
2018-06-10T04:49:50.408Z,53.47
2018-06-10T04:50:50.589Z,50.54
2018-06-10T04:51:50.823Z,50.54
2018-06-10T04:52:50.995Z,55.66
2018-06-10T04:53:51.123Z,55.66
2018-06-10T04:54:51.311Z,55.42
2018-06-10T04:55:51.496Z,53.47
2018-06-10T04:56:51.698Z,55.18
2018-06-10T04:57:51.857Z,51.27
2018-06-10T04:58:52.040Z,52.25
2018-06-10T04:59:52.232Z,58.35
2018-06-10T05:00:52.414Z,72.51
2018-06-10T05:01:52.610Z,53.96
2018-06-10T05:02:52.800Z,48.34
2018-06-10T05:03:53.011Z,51.03
2018-06-10T05:04:53.151Z,48.34
2018-06-10T05:05:53.323Z,49.07
2018-06-10T05:06:53.551Z,51.76
2018-06-10T05:07:53.746Z,54.20
2018-06-10T05:08:53.863Z,56.64
2018-06-10T05:09:54.057Z,59.57
2018-06-10T05:10:54.222Z,54.93
2018-06-10T05:11:54.445Z,57.86
2018-06-10T05:12:54.615Z,60.30
2018-06-10T05:13:54.792Z,54.93
2018-06-10T05:14:54.982Z,57.62
2018-06-10T05:15:55.159Z,45.41
2018-06-10T05:16:55.343Z,53.22
2018-06-10T05:17:55.543Z,46.14
2018-06-10T05:18:55.708Z,45.17
2018-06-10T05:19:55.925Z,46.88
2018-06-10T05:20:56.103Z,46.63
2018-06-10T05:21:56.257Z,46.63
2018-06-10T05:22:56.483Z,46.63
2018-06-10T05:23:56.622Z,44.43
2018-06-10T05:24:56.791Z,44.68
2018-06-10T05:25:57.074Z,56.88
2018-06-10T05:26:57.159Z,43.70
2018-06-10T05:27:57.362Z,43.46
2018-06-10T05:28:57.547Z,47.61
2018-06-10T05:29:57.735Z,44.68
2018-06-10T05:30:57.897Z,41.02
2018-06-10T05:31:58.075Z,42.48
2018-06-10T05:32:58.284Z,52.73
2018-06-10T05:33:58.442Z,55.66
2018-06-10T05:34:58.631Z,59.57
2018-06-10T05:35:58.836Z,54.69
2018-06-10T05:36:58.998Z,48.34
2018-06-10T05:37:59.182Z,47.12
2018-06-10T05:38:59.380Z,45.90
2018-06-10T05:39:59.557Z,43.70
2018-06-10T05:40:59.758Z,46.39
2018-06-10T05:41:59.962Z,58.84
2018-06-10T05:43:00.130Z,48.83
2018-06-10T05:44:00.333Z,46.63
2018-06-10T05:45:00.520Z,44.92
2018-06-10T05:46:00.683Z,54.44
2018-06-10T05:47:00.879Z,49.07
2018-06-10T05:48:01.070Z,43.46
2018-06-10T05:49:01.273Z,45.65
2018-06-10T05:50:01.451Z,49.07
2018-06-10T05:51:01.640Z,45.65
2018-06-10T05:52:01.790Z,46.88
2018-06-10T05:53:01.969Z,44.19
2018-06-10T05:54:02.145Z,42.97
2018-06-10T05:55:02.337Z,51.27
2018-06-10T05:56:02.528Z,46.39
2018-06-10T05:57:02.703Z,44.43
2018-06-10T05:58:02.915Z,46.14
2018-06-10T05:59:03.139Z,48.83
2018-06-10T06:00:03.244Z,49.32
2018-06-10T06:01:03.440Z,47.85
2018-06-10T06:02:03.622Z,49.80
2018-06-10T06:03:03.830Z,51.03
2018-06-10T06:04:03.969Z,54.69
2018-06-10T06:05:04.195Z,51.51
2018-06-10T06:06:04.344Z,47.12
2018-06-10T06:07:04.520Z,47.61
2018-06-10T06:08:04.727Z,55.18
2018-06-10T06:09:04.886Z,47.36
2018-06-10T06:10:05.083Z,48.10
2018-06-10T06:11:05.269Z,45.65
2018-06-10T06:12:05.443Z,48.58
2018-06-10T06:13:05.639Z,47.12
2018-06-10T06:14:05.806Z,48.83
2018-06-10T06:15:05.999Z,47.85
2018-06-10T06:16:06.182Z,46.88
2018-06-10T06:17:06.377Z,50.29
2018-06-10T06:18:06.563Z,46.88
2018-06-10T06:19:06.750Z,46.63
2018-06-10T06:20:06.935Z,45.41
2018-06-10T06:21:07.107Z,45.65
2018-06-10T06:22:07.294Z,45.90
2018-06-10T06:23:07.487Z,47.61
2018-06-10T06:24:07.672Z,47.36
2018-06-10T06:25:07.863Z,56.15
2018-06-10T06:26:08.036Z,45.41
2018-06-10T06:27:08.218Z,49.56
2018-06-10T06:28:08.444Z,63.48
2018-06-10T06:29:08.620Z,58.35
2018-06-10T06:30:08.798Z,55.42
2018-06-10T06:31:08.983Z,52.49
2018-06-10T06:32:09.156Z,46.39
2018-06-10T06:33:09.342Z,50.78
2018-06-10T06:34:09.522Z,49.80
2018-06-10T06:35:09.707Z,47.12
2018-06-10T06:36:09.900Z,48.10
2018-06-10T06:37:10.114Z,47.36
2018-06-10T06:38:10.279Z,46.63
2018-06-10T06:39:10.493Z,46.39
2018-06-10T06:40:10.663Z,57.62
2018-06-10T06:41:10.813Z,46.39
2018-06-10T06:42:11.004Z,46.63
2018-06-10T06:43:11.199Z,65.67
2018-06-10T06:44:11.348Z,62.01
2018-06-10T06:45:11.534Z,59.33
2018-06-10T06:46:11.754Z,66.41
2018-06-10T06:47:11.939Z,58.11
2018-06-10T06:48:12.089Z,60.79
2018-06-10T06:49:12.280Z,58.35
2018-06-10T06:50:12.495Z,62.74
2018-06-10T06:51:12.632Z,54.69
2018-06-10T06:52:12.845Z,60.06
2018-06-10T06:53:13.021Z,74.95
2018-06-10T06:54:13.207Z,65.43
2018-06-10T06:55:13.389Z,64.94
2018-06-10T06:56:13.574Z,59.57
2018-06-10T06:57:13.771Z,56.15
2018-06-10T06:58:13.934Z,55.66
2018-06-10T06:59:14.144Z,54.44
2018-06-10T07:00:14.319Z,56.64
2018-06-10T07:01:14.510Z,53.96
2018-06-10T07:02:14.700Z,53.96
2018-06-10T07:03:14.924Z,54.93
2018-06-10T07:04:15.112Z,52.98
2018-06-10T07:05:15.258Z,54.44
2018-06-10T07:06:15.481Z,48.83
2018-06-10T07:07:15.611Z,46.63
2018-06-10T07:08:15.808Z,47.12
2018-06-10T07:09:16.012Z,50.78
2018-06-10T07:10:16.170Z,59.57
2018-06-10T07:11:16.374Z,69.09
2018-06-10T07:12:16.551Z,55.66
2018-06-10T07:13:16.713Z,56.64
2018-06-10T07:14:16.909Z,44.68
2018-06-10T07:15:17.080Z,52.00
2018-06-10T07:16:17.276Z,52.98
2018-06-10T07:17:17.456Z,52.00
2018-06-10T07:18:17.648Z,73.24
2018-06-10T07:19:17.841Z,49.07
2018-06-10T07:20:18.025Z,69.09
2018-06-10T07:21:18.169Z,60.79
2018-06-10T07:22:18.367Z,49.32
2018-06-10T07:23:18.564Z,44.92
2018-06-10T07:24:18.761Z,48.83
2018-06-10T07:25:18.914Z,63.96
2018-06-10T07:26:19.135Z,54.20
2018-06-10T07:27:19.265Z,48.58
2018-06-10T07:28:19.452Z,48.58
2018-06-10T07:29:19.643Z,47.36
2018-06-10T07:30:19.837Z,51.51
2018-06-10T07:31:20.039Z,52.25
2018-06-10T07:32:20.222Z,49.56
2018-06-10T07:33:20.409Z,50.54
2018-06-10T07:34:20.581Z,50.54
2018-06-10T07:35:20.739Z,51.51
2018-06-10T07:36:20.951Z,41.99
2018-06-10T07:37:21.148Z,46.63
2018-06-10T07:38:21.300Z,47.12
2018-06-10T07:39:21.461Z,56.88
2018-06-10T07:40:21.655Z,47.85
2018-06-10T07:41:21.817Z,46.39
2018-06-10T07:42:22.077Z,42.24
2018-06-10T07:43:22.190Z,42.97
2018-06-10T07:44:22.366Z,47.12
2018-06-10T07:45:22.564Z,54.69
2018-06-10T07:46:22.751Z,50.78
2018-06-10T07:47:22.937Z,47.12
2018-06-10T07:48:23.182Z,44.68
2018-06-10T07:49:23.338Z,52.73
2018-06-10T07:50:23.510Z,53.47
2018-06-10T07:51:23.690Z,45.90
2018-06-10T07:52:23.879Z,54.93
2018-06-10T07:53:24.055Z,46.63
2018-06-10T07:54:24.248Z,43.95
2018-06-10T07:55:24.437Z,42.24
2018-06-10T07:56:24.624Z,56.15
2018-06-10T07:57:24.804Z,43.95
2018-06-10T07:58:24.977Z,51.27
2018-06-10T07:59:25.159Z,59.81
2018-06-10T08:00:25.367Z,62.74
2018-06-10T08:01:25.537Z,51.03
2018-06-10T08:02:25.719Z,50.54
2018-06-10T08:03:25.936Z,48.83
2018-06-10T08:04:26.107Z,55.66
2018-06-10T08:05:26.284Z,45.65
2018-06-10T08:06:26.460Z,53.22
2018-06-10T08:07:26.648Z,46.88
2018-06-10T08:08:26.839Z,62.74
2018-06-10T08:09:27.034Z,55.66
2018-06-10T08:10:27.222Z,54.69
2018-06-10T08:11:27.393Z,51.51
2018-06-10T08:12:27.577Z,49.80
2018-06-10T08:13:27.761Z,55.18
2018-06-10T08:14:28.004Z,61.04
2018-06-10T08:15:28.130Z,64.45
2018-06-10T08:16:28.312Z,63.48
2018-06-10T08:17:28.512Z,72.02
2018-06-10T08:18:28.714Z,68.60
2018-06-10T08:19:28.877Z,69.58
2018-06-10T08:20:29.077Z,67.87
2018-06-10T08:21:29.249Z,73.73
2018-06-10T08:22:29.426Z,66.89
2018-06-10T08:23:29.666Z,70.80
2018-06-10T08:24:29.822Z,78.37
2018-06-10T08:25:30.016Z,71.53
2018-06-10T08:26:30.264Z,64.70
2018-06-10T08:27:30.386Z,69.82
2018-06-10T08:28:30.573Z,63.72
2018-06-10T08:29:30.766Z,71.04
2018-06-10T08:30:30.951Z,73.73
2018-06-10T08:31:31.140Z,64.94
2018-06-10T08:32:31.336Z,68.85
2018-06-10T08:33:31.525Z,69.34
2018-06-10T08:34:31.714Z,63.72
2018-06-10T08:35:31.910Z,61.04
2018-06-10T08:36:32.097Z,60.55
2018-06-10T08:37:32.286Z,63.72
2018-06-10T08:38:32.478Z,63.96
2018-06-10T08:39:32.680Z,68.85
2018-06-10T08:40:32.872Z,63.48
2018-06-10T08:41:33.072Z,68.36
2018-06-10T08:42:33.255Z,70.56
2018-06-10T08:43:33.418Z,69.82
2018-06-10T08:44:33.614Z,67.63
2018-06-10T08:45:33.803Z,60.79
2018-06-10T08:46:33.987Z,61.52
2018-06-10T08:47:34.173Z,65.92
2018-06-10T08:48:34.371Z,64.45
2018-06-10T08:49:34.556Z,62.26
2018-06-10T08:50:34.751Z,59.57
2018-06-10T08:51:34.932Z,59.33
2018-06-10T08:52:35.115Z,73.24
2018-06-10T08:53:35.302Z,60.06
2018-06-10T08:54:35.483Z,73.24
2018-06-10T08:55:35.674Z,70.80
2018-06-10T08:56:35.857Z,60.30
2018-06-10T08:57:36.070Z,64.45
2018-06-10T08:58:36.224Z,59.33
2018-06-10T08:59:36.416Z,58.11
2018-06-10T09:00:36.623Z,56.64
2018-06-10T09:01:36.794Z,74.22
2018-06-10T09:02:37.005Z,55.66
2018-06-10T09:03:37.183Z,63.96
2018-06-10T09:04:37.344Z,60.06
2018-06-10T09:05:37.631Z,62.50
2018-06-10T09:06:37.669Z,61.28
2018-06-10T09:07:37.880Z,54.93
2018-06-10T09:08:38.136Z,57.13
2018-06-10T09:09:38.252Z,61.04
2018-06-10T09:10:38.413Z,70.56
2018-06-10T09:11:38.601Z,54.20
2018-06-10T09:12:38.785Z,62.01
2018-06-10T09:13:38.960Z,60.30
2018-06-10T09:14:39.178Z,56.15
2018-06-10T09:15:39.416Z,58.59
2018-06-10T09:16:39.543Z,61.52
2018-06-10T09:17:39.688Z,60.06
2018-06-10T09:18:39.889Z,50.78
2018-06-10T09:19:40.096Z,63.72
2018-06-10T09:20:40.254Z,58.84
2018-06-10T09:21:40.443Z,55.66
2018-06-10T09:22:40.626Z,75.68
2018-06-10T09:23:40.823Z,60.06
2018-06-10T09:24:41.050Z,60.30
2018-06-10T09:25:41.173Z,44.43
2018-06-10T09:26:41.353Z,54.69
2018-06-10T09:27:41.543Z,47.36
2018-06-10T09:28:42.140Z,60.79
2018-06-10T09:29:41.947Z,59.33
2018-06-10T09:30:42.132Z,48.83
2018-06-10T09:31:42.329Z,46.39
2018-06-10T09:32:42.514Z,47.36
2018-06-10T09:33:42.709Z,64.21
2018-06-10T09:34:42.892Z,59.08
2018-06-10T09:35:43.071Z,54.44
2018-06-10T09:36:43.273Z,53.96
2018-06-10T09:37:43.474Z,56.88
2018-06-10T09:38:43.647Z,47.12
2018-06-10T09:39:43.832Z,48.34
2018-06-10T09:40:44.011Z,49.32
2018-06-10T09:41:44.197Z,60.79
2018-06-10T09:42:44.377Z,51.03
2018-06-10T09:43:44.587Z,55.18
2018-06-10T09:44:44.738Z,53.47
2018-06-10T09:45:44.924Z,48.83
2018-06-10T09:46:45.105Z,60.30
2018-06-10T09:47:45.304Z,45.65
2018-06-10T09:48:45.470Z,48.83
2018-06-10T09:49:45.656Z,45.65
2018-06-10T09:50:45.864Z,45.65
2018-06-10T09:51:46.041Z,57.13
2018-06-10T09:52:46.195Z,62.74
2018-06-10T09:53:46.383Z,72.51
2018-06-10T09:54:46.572Z,56.40
2018-06-10T09:55:46.786Z,60.06
2018-06-10T09:56:46.990Z,62.50
2018-06-10T09:57:47.134Z,58.35
2018-06-10T09:58:47.318Z,63.23
2018-06-10T09:59:47.494Z,57.13
2018-06-10T10:00:47.686Z,63.96
2018-06-10T10:01:47.863Z,75.44
2018-06-10T10:02:48.078Z,55.42
2018-06-10T10:03:48.237Z,55.91
2018-06-10T10:04:48.413Z,59.81
2018-06-10T10:05:48.601Z,53.47
2018-06-10T10:06:48.780Z,51.76
2018-06-10T10:07:48.986Z,50.78
2018-06-10T10:08:49.236Z,63.23
2018-06-10T10:09:49.364Z,51.03
2018-06-10T10:10:49.542Z,51.03
2018-06-10T10:11:49.738Z,55.42
2018-06-10T10:12:49.911Z,53.47
2018-06-10T10:13:50.101Z,49.80
2018-06-10T10:14:50.290Z,66.65
2018-06-10T10:15:50.475Z,65.67
2018-06-10T10:16:50.681Z,70.31
2018-06-10T10:17:50.866Z,47.36
2018-06-10T10:18:51.052Z,44.92
2018-06-10T10:19:51.210Z,52.00
2018-06-10T10:20:51.428Z,62.01
2018-06-10T10:21:51.576Z,47.85
2018-06-10T10:22:51.785Z,50.54
2018-06-10T10:23:51.945Z,52.00
2018-06-10T10:24:52.136Z,47.61
2018-06-10T10:25:52.348Z,44.19
2018-06-10T10:26:52.534Z,43.95
2018-06-10T10:27:52.710Z,46.14
2018-06-10T10:28:52.967Z,44.92
2018-06-10T10:29:53.144Z,45.65
2018-06-10T10:30:53.375Z,59.81
2018-06-10T10:31:53.499Z,55.66
2018-06-10T10:32:53.702Z,55.42
2018-06-10T10:33:53.888Z,58.35
2018-06-10T10:34:54.102Z,55.66
2018-06-10T10:35:54.251Z,56.40
2018-06-10T10:36:54.435Z,52.25
2018-06-10T10:37:54.619Z,57.37
2018-06-10T10:38:54.808Z,58.11
2018-06-10T10:39:54.982Z,56.64
2018-06-10T10:40:55.195Z,76.66
2018-06-10T10:41:55.356Z,70.31
2018-06-10T10:42:55.536Z,61.77
2018-06-10T10:43:55.704Z,57.37
2018-06-10T10:44:55.906Z,57.62
2018-06-10T10:45:56.083Z,55.66
2018-06-10T10:46:56.250Z,55.91
2018-06-10T10:47:56.455Z,56.15
2018-06-10T10:48:56.652Z,57.86
2018-06-10T10:49:56.836Z,53.22
2018-06-10T10:50:57.047Z,50.05
2018-06-10T10:51:57.212Z,41.99
2018-06-10T10:52:57.391Z,43.46
2018-06-10T10:53:57.565Z,45.90
2018-06-10T10:54:57.797Z,52.98
2018-06-10T10:55:57.927Z,59.57
2018-06-10T10:56:58.180Z,54.69
2018-06-10T10:57:58.335Z,56.40
2018-06-10T10:58:58.532Z,53.71
2018-06-10T10:59:58.687Z,46.14
2018-06-10T11:00:58.819Z,59.81
2018-06-10T11:01:59.122Z,54.44
2018-06-10T11:02:59.215Z,55.91
2018-06-10T11:03:59.386Z,50.29
2018-06-10T11:04:59.586Z,57.37
2018-06-10T11:05:59.792Z,43.70
2018-06-10T11:06:59.944Z,50.29
2018-06-10T11:08:00.168Z,50.29
2018-06-10T11:09:00.358Z,47.36
2018-06-10T11:10:00.540Z,56.64
2018-06-10T11:11:00.823Z,55.42
2018-06-10T11:12:00.918Z,52.00
2018-06-10T11:13:01.104Z,53.96
2018-06-10T11:14:01.308Z,46.88
2018-06-10T11:15:01.486Z,45.90
2018-06-10T11:16:01.696Z,44.19
2018-06-10T11:17:01.839Z,58.35
2018-06-10T11:18:02.033Z,57.37
2018-06-10T11:19:02.215Z,53.96
2018-06-10T11:20:02.407Z,50.54
2018-06-10T11:21:02.602Z,52.73
2018-06-10T11:22:02.792Z,59.81
2018-06-10T11:23:02.989Z,44.68
2018-06-10T11:24:03.183Z,52.49
2018-06-10T11:25:03.374Z,51.76
2018-06-10T11:26:03.566Z,46.63
2018-06-10T11:27:03.781Z,50.54
2018-06-10T11:28:03.965Z,48.10
2018-06-10T11:29:04.145Z,49.07
2018-06-10T11:30:04.339Z,52.25
2018-06-10T11:31:04.569Z,56.40
2018-06-10T11:32:04.718Z,54.93
2018-06-10T11:33:04.910Z,54.20
2018-06-10T11:34:05.108Z,56.15
2018-06-10T11:35:05.290Z,55.91
2018-06-10T11:36:05.501Z,52.25
2018-06-10T11:37:05.699Z,53.96
2018-06-10T11:38:05.886Z,50.54
2018-06-10T11:39:06.080Z,49.32
2018-06-10T11:40:06.270Z,55.42
2018-06-10T11:41:06.468Z,61.28
2018-06-10T11:42:06.660Z,66.89
2018-06-10T11:43:06.846Z,65.67
2018-06-10T11:44:07.035Z,52.98
2018-06-10T11:45:07.235Z,59.08
2018-06-10T11:46:07.427Z,57.86
2018-06-10T11:47:07.624Z,62.26
2018-06-10T11:48:07.816Z,62.01
2018-06-10T11:49:08.004Z,54.20
2018-06-10T11:50:08.216Z,60.55
2018-06-10T11:51:08.390Z,60.30
2018-06-10T11:52:08.644Z,57.86
2018-06-10T11:53:08.776Z,58.35
2018-06-10T11:54:08.968Z,58.11
2018-06-10T11:55:09.169Z,58.11
2018-06-10T11:56:09.345Z,58.11
2018-06-10T11:57:09.544Z,62.01
2018-06-10T11:58:09.755Z,59.08
2018-06-10T11:59:09.911Z,58.35
2018-06-10T12:00:10.115Z,58.84
2018-06-10T12:01:10.322Z,46.14
2018-06-10T12:02:10.483Z,52.49
2018-06-10T12:03:10.676Z,56.15
2018-06-10T12:04:10.867Z,53.47
2018-06-10T12:05:11.090Z,54.69
2018-06-10T12:06:11.246Z,47.85
2018-06-10T12:07:11.441Z,45.65
2018-06-10T12:08:11.629Z,54.93
2018-06-10T12:09:11.826Z,59.57
2018-06-10T12:10:12.013Z,48.58
2018-06-10T12:11:12.205Z,50.78
2018-06-10T12:12:12.390Z,54.93
2018-06-10T12:13:12.635Z,48.83
2018-06-10T12:14:12.778Z,46.63
2018-06-10T12:15:12.968Z,52.73
2018-06-10T12:16:13.170Z,52.98
2018-06-10T12:17:13.350Z,54.44
2018-06-10T12:18:13.544Z,45.65
2018-06-10T12:19:13.735Z,51.51
2018-06-10T12:20:13.926Z,47.61
2018-06-10T12:21:14.122Z,46.63
2018-06-10T12:22:14.310Z,44.92
2018-06-10T12:23:14.503Z,44.19
2018-06-10T12:24:14.693Z,49.56
2018-06-10T12:25:14.885Z,52.00
2018-06-10T12:26:15.077Z,44.43
2018-06-10T12:27:15.273Z,47.61
2018-06-10T12:28:15.462Z,45.17
2018-06-10T12:29:15.693Z,53.47
2018-06-10T12:30:15.851Z,50.05
2018-06-10T12:31:16.044Z,48.58
2018-06-10T12:32:16.240Z,58.84
2018-06-10T12:33:16.428Z,63.48
2018-06-10T12:34:16.620Z,58.59
2018-06-10T12:35:16.837Z,57.62
2018-06-10T12:36:17.013Z,60.55
2018-06-10T12:37:17.202Z,57.86
2018-06-10T12:38:17.395Z,60.06
2018-06-10T12:39:17.597Z,60.30
2018-06-10T12:40:17.784Z,54.93
2018-06-10T12:41:17.954Z,51.27
2018-06-10T12:42:18.190Z,49.32
2018-06-10T12:43:18.348Z,50.29
2018-06-10T12:44:18.547Z,52.98
2018-06-10T12:45:19.493Z,56.88
2018-06-10T12:46:18.922Z,62.26
2018-06-10T12:47:19.118Z,49.80
2018-06-10T12:48:19.297Z,56.64
2018-06-10T12:49:19.521Z,62.74
2018-06-10T12:50:19.748Z,59.33
2018-06-10T12:51:19.937Z,62.26
2018-06-10T12:52:20.019Z,59.33
2018-06-10T12:53:20.215Z,51.27
2018-06-10T12:54:20.406Z,49.07
2018-06-10T12:55:20.609Z,45.17